Terminal Aerodrome Forecast
Issued by NWS

Current Version | Previous Version | Text Only | Print | Product List | Glossary Off
Versions: 1 2 3 4 5 6 7 8 9 10 11 12 13 14 15 16 17 18 19

688
FTUS41 KPBZ 031126
TAFHLG
TAF
KHLG 031126Z 0312/0412 29010KT P6SM OVC017
     FM031500 28010G18KT P6SM OVC025
     FM032200 27006KT P6SM BKN035=

USA.gov is the U.S. government's official web portal to all federal, state and local government web resources and services.